createdAt,value
2017-09-13T00:03:15.130Z,99988
2017-09-13T00:08:18.319Z,99973
2017-09-13T00:13:21.521Z,99962
2017-09-13T00:18:24.743Z,99959
2017-09-13T00:23:27.967Z,99955
2017-09-13T00:28:31.167Z,99947
2017-09-13T00:33:34.374Z,99949
2017-09-13T00:38:37.586Z,99943
2017-09-13T00:43:40.757Z,99946
2017-09-13T00:48:43.975Z,99930
2017-09-13T00:53:47.170Z,99934
2017-09-13T00:58:50.427Z,99926
2017-09-13T01:03:53.636Z,99894
2017-09-13T01:08:56.858Z,99882
2017-09-13T01:14:00.081Z,99852
2017-09-13T01:19:03.277Z,99832
2017-09-13T01:24:07.396Z,99831
2017-09-13T01:29:10.602Z,99824
2017-09-13T01:34:13.824Z,99808
2017-09-13T01:39:17.796Z,99787
2017-09-13T01:44:21.056Z,99774
2017-09-13T01:49:24.340Z,99748
2017-09-13T01:54:27.560Z,99727
2017-09-13T01:59:30.781Z,99713
2017-09-13T02:04:34.740Z,99698
2017-09-13T02:09:37.956Z,99698
2017-09-13T02:14:41.145Z,99679
2017-09-13T02:19:44.355Z,99665
2017-09-13T02:24:47.535Z,99647
2017-09-13T02:29:50.760Z,99644
2017-09-13T02:34:53.968Z,99640
2017-09-13T02:39:57.233Z,99643
2017-09-13T02:45:00.451Z,99630
2017-09-13T02:50:03.639Z,99617
2017-09-13T02:55:06.873Z,99587
2017-09-13T03:00:10.843Z,99586
2017-09-13T03:05:14.069Z,99572
2017-09-13T03:10:17.271Z,99556
2017-09-13T03:15:20.521Z,99566
2017-09-13T03:20:23.730Z,99536
2017-09-13T03:25:27.715Z,99510
2017-09-13T03:30:30.921Z,99488
2017-09-13T03:35:34.137Z,99488
2017-09-13T03:40:37.485Z,99478
2017-09-13T03:45:40.698Z,99468
2017-09-13T03:50:43.916Z,99469
2017-09-13T03:55:47.124Z,99447
2017-09-13T04:00:50.349Z,99435
2017-09-13T04:05:53.638Z,99422
2017-09-13T04:10:56.833Z,99418
2017-09-13T04:16:00.092Z,99403
2017-09-13T04:21:03.340Z,99400
2017-09-13T04:26:07.466Z,99411
2017-09-13T04:31:11.405Z,99399
2017-09-13T04:36:14.637Z,99406
2017-09-13T04:41:17.861Z,99407
2017-09-13T04:46:21.072Z,99417
2017-09-13T04:51:24.275Z,99418
2017-09-13T04:56:27.497Z,99427
2017-09-13T05:01:30.732Z,99412
2017-09-13T05:06:34.683Z,99399
2017-09-13T05:11:38.002Z,99406
2017-09-13T05:16:41.191Z,99394
2017-09-13T05:21:44.383Z,99388
2017-09-13T05:26:48.340Z,99380
2017-09-13T05:31:51.552Z,99388
2017-09-13T05:36:54.738Z,99363
2017-09-13T05:41:57.921Z,99356
2017-09-13T05:47:01.890Z,99359
2017-09-13T05:52:05.092Z,99349
2017-09-13T05:57:08.281Z,99364
2017-09-13T06:02:11.458Z,99368
2017-09-13T06:07:15.465Z,99372
2017-09-13T06:12:18.680Z,99359
2017-09-13T06:17:21.864Z,99348
2017-09-13T06:22:25.075Z,99353
2017-09-13T06:27:28.367Z,99357
2017-09-13T06:32:31.608Z,99354
2017-09-13T06:37:34.793Z,99348
2017-09-13T06:42:37.999Z,99345
2017-09-13T06:47:41.173Z,99332
2017-09-13T06:52:44.485Z,99326
2017-09-13T06:57:47.696Z,99320
2017-09-13T07:02:50.881Z,99317
2017-09-13T07:07:54.065Z,99294
2017-09-13T07:12:58.154Z,99289
2017-09-13T07:18:01.343Z,99284
2017-09-13T07:23:04.594Z,99276
2017-09-13T07:28:07.796Z,99259
2017-09-13T07:33:10.980Z,99266
2017-09-13T07:38:14.212Z,99259
2017-09-13T07:43:17.425Z,99252
2017-09-13T07:48:20.625Z,99262
2017-09-13T07:53:23.806Z,99221
2017-09-13T07:58:27.012Z,99260
2017-09-13T08:03:30.229Z,99275
2017-09-13T08:08:33.428Z,99273
2017-09-13T08:13:36.635Z,99275
2017-09-13T08:18:39.868Z,99290
2017-09-13T08:23:43.071Z,99279
2017-09-13T08:28:46.263Z,99283
2017-09-13T08:33:49.487Z,99291
2017-09-13T08:38:52.696Z,99291
2017-09-13T08:43:56.707Z,99298
2017-09-13T08:48:59.906Z,99292
2017-09-13T08:54:03.141Z,99296
2017-09-13T08:59:07.113Z,99276
2017-09-13T09:04:10.318Z,99271
2017-09-13T09:09:13.539Z,99289
2017-09-13T09:14:16.764Z,99278
2017-09-13T09:19:19.988Z,99270
2017-09-13T09:24:23.977Z,99267
2017-09-13T09:29:27.188Z,99245
2017-09-13T09:34:30.393Z,99249
2017-09-13T09:41:55.035Z,99246
2017-09-13T09:46:59.011Z,99225
2017-09-13T09:52:02.227Z,99228
2017-09-13T09:57:05.422Z,99229
2017-09-13T10:02:08.858Z,99211
2017-09-13T10:07:12.050Z,99200
2017-09-13T10:12:15.229Z,99192
2017-09-13T10:17:18.449Z,99193
2017-09-13T10:22:21.710Z,99181
2017-09-13T10:27:24.922Z,99164
2017-09-13T10:32:28.132Z,99173
2017-09-13T10:37:32.116Z,99178
2017-09-13T10:42:35.312Z,99168
2017-09-13T10:47:38.581Z,99178
2017-09-13T10:52:42.561Z,99181
2017-09-13T10:57:45.759Z,99193
2017-09-13T11:02:48.972Z,99207
2017-09-13T11:07:52.174Z,99240
2017-09-13T11:12:55.473Z,99258
2017-09-13T11:17:58.697Z,99278
2017-09-13T11:23:01.886Z,99332
2017-09-13T11:28:05.086Z,99293
2017-09-13T11:33:08.277Z,99287
2017-09-13T11:38:11.495Z,99322
2017-09-13T11:43:14.693Z,99309
2017-09-13T11:48:17.912Z,99329
2017-09-13T11:53:21.135Z,99346
2017-09-13T11:58:24.331Z,99362
2017-09-13T12:03:27.610Z,99348
2017-09-13T12:08:31.578Z,99351
2017-09-13T12:13:35.522Z,99355
2017-09-13T12:18:38.741Z,99366
2017-09-13T12:23:41.977Z,99346
2017-09-13T12:28:45.189Z,99354
2017-09-13T12:33:48.483Z,99342
2017-09-13T12:38:52.455Z,99340
2017-09-13T12:43:55.621Z,99355
2017-09-13T12:48:58.844Z,99357
2017-09-13T12:54:02.071Z,99349
2017-09-13T12:59:05.290Z,99340
2017-09-13T13:04:08.496Z,99339
2017-09-13T13:09:11.764Z,99331
2017-09-13T13:14:15.114Z,99331
2017-09-13T13:19:18.319Z,99329
2017-09-13T13:24:21.539Z,99318
2017-09-13T13:29:25.094Z,99318
2017-09-13T13:34:29.103Z,99313
2017-09-13T13:39:32.297Z,99300
2017-09-13T13:44:35.510Z,99292
2017-09-13T13:49:38.730Z,99315
2017-09-13T13:54:42.726Z,99313
2017-09-13T13:59:45.975Z,99310
2017-09-13T14:04:49.950Z,99300
2017-09-13T14:09:53.167Z,99296
2017-09-13T14:14:56.377Z,99289
2017-09-13T14:19:59.599Z,99287
2017-09-13T14:25:02.833Z,99276
2017-09-13T14:30:06.801Z,99288
2017-09-13T14:35:10.013Z,99289
2017-09-13T14:40:13.341Z,99271
2017-09-13T14:45:16.535Z,99266
2017-09-13T14:50:19.761Z,99276
2017-09-13T14:55:22.981Z,99308
2017-09-13T15:00:26.971Z,99277
2017-09-13T15:05:30.197Z,99286
2017-09-13T15:10:33.393Z,99287
2017-09-13T15:15:36.584Z,99316
2017-09-13T15:20:39.812Z,99312
2017-09-13T15:25:43.262Z,99304
2017-09-13T15:30:46.496Z,99249
2017-09-13T15:35:49.721Z,99265
2017-09-13T15:40:53.036Z,99254
2017-09-13T15:45:56.305Z,99292
2017-09-13T15:50:59.549Z,99278
2017-09-13T15:56:02.758Z,99309
2017-09-13T16:01:05.978Z,99297
2017-09-13T16:06:09.239Z,99249
2017-09-13T16:11:12.482Z,99296
2017-09-13T16:16:15.727Z,99314
2017-09-13T16:21:19.746Z,99308
2017-09-13T16:26:22.994Z,99231
2017-09-13T16:31:26.217Z,99243
2017-09-13T16:36:29.796Z,99306
2017-09-13T16:41:33.022Z,99294
2017-09-13T16:46:36.305Z,99266
2017-09-13T16:51:40.261Z,99287
2017-09-13T16:56:43.504Z,99278
2017-09-13T17:01:46.718Z,99291
2017-09-13T17:06:49.989Z,99318
2017-09-13T17:11:53.184Z,99319
2017-09-13T17:16:56.414Z,99304
2017-09-13T17:21:59.643Z,99298
2017-09-13T17:27:02.903Z,99297
2017-09-13T17:32:06.156Z,99307
2017-09-13T17:37:09.590Z,99287
2017-09-13T17:42:13.583Z,99294
2017-09-13T17:47:16.797Z,99310
2017-09-13T17:52:20.001Z,99326
2017-09-13T17:57:23.227Z,99287
2017-09-13T18:02:26.403Z,99277
2017-09-13T18:07:29.642Z,99322
2017-09-13T18:12:33.619Z,99312
2017-09-13T18:17:36.850Z,99310
2017-09-13T18:22:40.067Z,99325
2017-09-13T18:27:43.292Z,99334
2017-09-13T18:32:47.265Z,99323
2017-09-13T18:37:50.464Z,99330
2017-09-13T18:42:53.685Z,99326
2017-09-13T18:47:56.910Z,99333
2017-09-13T18:53:00.140Z,99336
2017-09-13T18:58:04.117Z,99358
2017-09-13T19:03:07.417Z,99353
2017-09-13T19:08:10.640Z,99338
2017-09-13T19:13:13.866Z,99341
2017-09-13T19:18:17.143Z,99312
2017-09-13T19:23:20.415Z,99314
2017-09-13T19:28:23.624Z,99335
2017-09-13T19:33:26.849Z,99329
2017-09-13T19:38:30.193Z,99368
2017-09-13T19:43:33.415Z,99377
2017-09-13T19:48:36.655Z,99384
2017-09-13T19:53:40.066Z,99381
2017-09-13T19:58:44.084Z,99365
2017-09-13T20:03:48.064Z,99374
2017-09-13T20:08:51.515Z,99362
2017-09-13T20:13:55.521Z,99340
2017-09-13T20:18:58.722Z,99332
2017-09-13T20:24:01.938Z,99293
2017-09-13T20:29:05.217Z,99316
2017-09-13T20:34:08.500Z,99359
2017-09-13T20:39:11.821Z,99341
2017-09-13T20:44:15.056Z,99353
2017-09-13T20:49:18.271Z,99349
2017-09-13T20:54:21.486Z,99339
2017-09-13T20:59:24.692Z,99327
2017-09-13T21:04:27.960Z,99323
2017-09-13T21:09:31.191Z,99325
2017-09-13T21:14:34.397Z,99333
2017-09-13T21:19:37.595Z,99326
2017-09-13T21:24:40.902Z,99309
2017-09-13T21:29:44.146Z,99305
2017-09-13T21:34:48.168Z,99290
2017-09-13T21:39:51.390Z,99300
2017-09-13T21:44:55.357Z,99298
2017-09-13T21:49:58.566Z,99317
2017-09-13T21:55:01.782Z,99304
2017-09-13T22:00:05.000Z,99256
2017-09-13T22:05:08.230Z,99268
2017-09-13T22:10:11.430Z,99265
2017-09-13T22:15:14.757Z,99244
2017-09-13T22:20:18.110Z,99235
2017-09-13T22:25:21.373Z,99243
2017-09-13T22:30:25.365Z,99241
2017-09-13T22:35:28.634Z,99258
2017-09-13T22:40:31.866Z,99254
2017-09-13T22:45:35.071Z,99238
2017-09-13T22:50:38.284Z,99235
2017-09-13T22:55:41.534Z,99258
2017-09-13T23:00:45.602Z,99251
2017-09-13T23:05:48.804Z,99265
2017-09-13T23:10:52.006Z,99281
2017-09-13T23:15:55.212Z,99277
2017-09-13T23:20:58.407Z,99278
2017-09-13T23:26:01.677Z,99260
2017-09-13T23:31:04.893Z,99257
2017-09-13T23:36:08.122Z,99226
2017-09-13T23:41:12.212Z,99207
2017-09-13T23:46:15.413Z,99212
2017-09-13T23:51:18.755Z,99206
2017-09-13T23:56:22.720Z,99217
